»·PEaware :: DAL50 KSLC-EGLL

DAL50 :: KSLC-EGLL

FLIGHT INFORMATION

Flight Status: Arrived
Operator:
Delta Air Lines
More flights by this operator :: More flights under this callsign
Pilot: Kyle K. (11122)
Aircraft: BOEING 767-300
(B763)
More flights by this aircraft type
Origin: KSLC Salt Lake City Intl
United States
Destination: EGLL Heathrow
United Kingdom
More flights between these airports :: More routes between these airports
Route: + / OCS237035 DDY J158 ABR CESNA WLSTN SSM MIILS/N0481F350 N155A PORTI/M083F350 47N050W 48N040W 49N030W 50N020W SOMAX ATSUR/N0480F350 EVRIN UL607 NUMPO UP2 BEDEK TOMO2F
File this flight plan on PilotEdge
Remarks:
Altitude:
(Current/Filed)
33,000ft
Speed:
(Current/Filed)
482kts
Departed: 23-Sep-17 04:49 PM
Arrived: 24-Sep-17 02:09 AM
Distance/Time
Traveled:
4214nm/9:20
Distance/Time
To Go:
Arrived

Flight Plot

Page will automatically refresh every two minutes.

Flight plan parsing failed; only flown route is shown


Map Options




Map Legend


Flown Route
Filed Route
Departure Airport
Arrival Airport
Navaid (VOR, NDB)
Fix

Horizontal Profiles

Position Reports

Time Latitude Longitude Heading Altitude Ground
Speed
23-Sep-17 16:19 40.789336 -111.985330 114 4227ft 0kts
23-Sep-17 16:20 40.789336 -111.985330 114 4227ft 0kts
23-Sep-17 16:21 40.789336 -111.985330 114 4227ft 0kts
23-Sep-17 16:22 40.789336 -111.985330 114 4227ft 0kts
23-Sep-17 16:23 40.789336 -111.985330 114 4227ft 0kts
23-Sep-17 16:24 40.789336 -111.985330 114 4227ft 0kts
23-Sep-17 16:25 40.789336 -111.985330 114 4227ft 0kts
23-Sep-17 16:26 40.789336 -111.985330 114 4227ft 0kts
23-Sep-17 16:27 40.789336 -111.985330 114 4227ft 0kts
23-Sep-17 16:28 40.789336 -111.985330 114 4227ft 0kts
23-Sep-17 16:29 40.789336 -111.985330 114 4227ft 0kts
23-Sep-17 16:30 40.789336 -111.985330 114 4227ft 0kts
23-Sep-17 16:31 40.789336 -111.985330 114 4227ft 0kts
23-Sep-17 16:32 40.789336 -111.985330 114 4227ft 0kts
23-Sep-17 16:33 40.789336 -111.985330 114 4227ft 0kts
23-Sep-17 16:34 40.789336 -111.985330 114 4227ft 0kts
23-Sep-17 16:35 40.789336 -111.985330 114 4227ft 0kts
23-Sep-17 16:36 40.789336 -111.985330 114 4227ft 0kts
23-Sep-17 16:37 40.789336 -111.985330 114 4227ft 0kts
23-Sep-17 16:38 40.789336 -111.985330 114 4227ft 0kts
23-Sep-17 16:39 40.789411 -111.985693 100 4227ft 2kts
23-Sep-17 16:40 40.789251 -111.986167 16 4227ft 0kts
23-Sep-17 16:41 40.789251 -111.986167 16 4227ft 0kts
23-Sep-17 16:42 40.789251 -111.986167 16 4227ft 0kts
23-Sep-17 16:43 40.789252 -111.986167 16 4227ft 0kts
23-Sep-17 16:44 40.789826 -111.984175 83 4227ft 16kts
23-Sep-17 16:45 40.790537 -111.982513 356 4226ft 0kts
23-Sep-17 16:46 40.791100 -111.982564 355 4225ft 14kts
23-Sep-17 16:47 40.792041 -111.978715 85 4224ft 16kts
23-Sep-17 16:48 40.789889 -111.977033 175 4227ft 12kts
23-Sep-17 16:49 40.786024 -111.976621 174 4228ft 16kts
23-Sep-17 16:50 40.780254 -111.976015 177 4230ft 25kts
23-Sep-17 16:51 40.775078 -111.975280 157 4230ft 13kts
23-Sep-17 16:52 40.774767 -111.973328 53 4230ft 8kts
23-Sep-17 16:53 40.785271 -111.974372 354 4227ft 127kts
23-Sep-17 16:54 40.834622 -111.980855 354 5403ft 209kts
23-Sep-17 16:55 40.884874 -111.987488 354 6839ft 246kts
23-Sep-17 16:56 40.950445 -111.996393 354 9254ft 269kts
23-Sep-17 16:57 41.024939 -112.004909 10 11660ft 294kts
23-Sep-17 16:58 41.082530 -111.905117 89 13550ft 362kts
23-Sep-17 16:59 41.055754 -111.783288 107 16451ft 372kts
23-Sep-17 17:00 41.031746 -111.679850 93 18692ft 375kts
23-Sep-17 17:01 41.035920 -111.545539 84 20730ft 395kts
23-Sep-17 17:02 41.047686 -111.399509 84 23051ft 408kts
23-Sep-17 17:03 41.062628 -111.227224 86 25417ft 422kts
23-Sep-17 17:04 41.078202 -111.072272 79 27149ft 443kts
23-Sep-17 17:05 41.107421 -110.952438 79 28184ft 461kts
23-Sep-17 17:06 41.147928 -110.788281 81 29464ft 479kts
23-Sep-17 17:07 41.191131 -110.618657 80 30891ft 492kts
23-Sep-17 17:08 41.234960 -110.447811 81 32365ft 497kts
23-Sep-17 17:09 41.278290 -110.277641 82 33020ft 501kts
23-Sep-17 17:10 41.321998 -110.104792 82 33030ft 497kts
23-Sep-17 17:11 41.365170 -109.932813 82 33032ft 497kts
23-Sep-17 17:12 41.409175 -109.759727 76 33011ft 504kts
23-Sep-17 17:13 41.501347 -109.610906 40 33013ft 549kts
23-Sep-17 17:14 41.632483 -109.511484 33 32999ft 545kts
23-Sep-17 17:15 41.760370 -109.405075 49 33001ft 533kts
23-Sep-17 17:16 41.838279 -109.251076 69 33017ft 509kts
23-Sep-17 17:17 41.909744 -109.085960 69 33011ft 516kts
23-Sep-17 17:18 41.982822 -108.919473 70 33017ft 523kts
23-Sep-17 17:19 42.056274 -108.751389 70 33015ft 522kts
23-Sep-17 17:20 42.127490 -108.587590 70 33001ft 521kts
23-Sep-17 17:21 42.200244 -108.419296 70 33046ft 522kts
23-Sep-17 17:22 42.269910 -108.257283 71 33067ft 520kts
23-Sep-17 17:23 42.341733 -108.089261 71 33051ft 520kts
23-Sep-17 17:24 42.413205 -107.921136 71 33054ft 520kts
23-Sep-17 17:25 42.484600 -107.752238 71 33034ft 519kts
23-Sep-17 17:26 42.555261 -107.584080 71 33026ft 520kts
23-Sep-17 17:27 42.626240 -107.414221 71 33007ft 519kts
23-Sep-17 17:28 42.695897 -107.246563 72 33035ft 518kts
23-Sep-17 17:29 42.766114 -107.076513 72 33045ft 518kts
23-Sep-17 17:30 42.836612 -106.904648 71 33048ft 530kts
23-Sep-17 17:31 42.909225 -106.726795 70 33053ft 543kts
23-Sep-17 17:32 42.981789 -106.548007 70 33052ft 538kts
23-Sep-17 17:33 43.053687 -106.369666 70 33051ft 535kts
23-Sep-17 17:34 43.115694 -106.195031 80 33024ft 521kts
23-Sep-17 17:35 43.167805 -106.010078 79 33030ft 523kts
23-Sep-17 17:36 43.220492 -105.825235 79 33045ft 523kts
23-Sep-17 17:37 43.272855 -105.640359 79 33048ft 524kts
23-Sep-17 17:38 43.325324 -105.453811 79 33053ft 522kts
23-Sep-17 17:39 43.376182 -105.271607 80 33048ft 521kts
23-Sep-17 17:40 43.427547 -105.086128 80 33051ft 522kts
23-Sep-17 17:41 43.479031 -104.898754 79 33076ft 529kts
23-Sep-17 17:42 43.530789 -104.709232 79 33093ft 529kts
23-Sep-17 17:43 43.581964 -104.520202 79 33096ft 529kts
23-Sep-17 17:44 43.632280 -104.332869 79 33095ft 529kts
23-Sep-17 17:45 43.682561 -104.144262 79 33096ft 527kts
23-Sep-17 17:46 43.732726 -103.954557 79 33091ft 528kts
23-Sep-17 17:47 43.782552 -103.764643 79 33090ft 527kts
23-Sep-17 17:48 43.832102 -103.574256 80 33092ft 527kts
23-Sep-17 17:49 43.881202 -103.384083 79 33095ft 527kts
23-Sep-17 17:50 43.929404 -103.195885 80 33092ft 525kts
23-Sep-17 17:51 43.977840 -103.006043 77 33091ft 525kts
23-Sep-17 17:52 44.040484 -102.821149 73 33097ft 531kts
23-Sep-17 17:53 44.102358 -102.636822 73 33095ft 530kts
23-Sep-17 17:54 44.163125 -102.454329 73 33075ft 530kts
23-Sep-17 17:55 44.223935 -102.270466 74 33043ft 528kts
23-Sep-17 17:56 44.284937 -102.084652 74 33042ft 529kts
23-Sep-17 17:57 44.345596 -101.898610 74 33042ft 529kts
23-Sep-17 17:58 44.406010 -101.712033 74 33045ft 528kts
23-Sep-17 17:59 44.465941 -101.525579 74 33048ft 529kts
23-Sep-17 18:00 44.525243 -101.339820 74 33048ft 528kts
23-Sep-17 18:01 44.584288 -101.153507 74 33028ft 527kts
23-Sep-17 18:02 44.643032 -100.966759 74 32978ft 524kts
23-Sep-17 18:03 44.701123 -100.780740 73 32976ft 517kts
23-Sep-17 18:04 44.758293 -100.596529 73 32980ft 518kts
23-Sep-17 18:05 44.815252 -100.411578 73 32982ft 518kts
23-Sep-17 18:06 44.871700 -100.226964 74 33715ft 520kts
23-Sep-17 18:07 44.928096 -100.041196 74 35432ft 514kts
23-Sep-17 18:08 44.983777 -99.856361 74 36563ft 513kts
23-Sep-17 18:09 45.039586 -99.669701 74 37020ft 522kts
23-Sep-17 18:10 45.095872 -99.480134 74 37065ft 528kts
23-Sep-17 18:11 45.151369 -99.291819 75 37057ft 532kts
23-Sep-17 18:12 45.207573 -99.099605 75 37058ft 530kts
23-Sep-17 18:13 45.263223 -98.907647 73 37058ft 523kts
23-Sep-17 18:14 45.317856 -98.717959 72 37053ft 528kts
23-Sep-17 18:15 45.372828 -98.525687 72 37042ft 526kts
23-Sep-17 18:16 45.418326 -98.336812 86 37051ft 516kts
23-Sep-17 18:17 45.440273 -98.137905 88 37043ft 513kts
23-Sep-17 18:18 45.460051 -97.937617 88 37045ft 512kts
23-Sep-17 18:19 45.479274 -97.737941 88 37035ft 512kts
23-Sep-17 18:20 45.498223 -97.537176 88 37039ft 512kts
23-Sep-17 18:21 45.516611 -97.338558 89 37045ft 512kts
23-Sep-17 18:22 45.534576 -97.140509 89 37048ft 511kts
23-Sep-17 18:23 45.552493 -96.938892 88 37075ft 515kts
23-Sep-17 18:24 45.570122 -96.737108 88 37068ft 514kts
23-Sep-17 18:25 45.587331 -96.535587 87 37072ft 514kts
23-Sep-17 18:26 45.604031 -96.335708 88 37059ft 514kts
23-Sep-17 18:27 45.620440 -96.135045 89 37034ft 513kts
23-Sep-17 18:28 45.636586 -95.933131 88 37031ft 513kts
23-Sep-17 18:29 45.652344 -95.731492 89 37045ft 513kts
23-Sep-17 18:30 45.667733 -95.529971 89 37056ft 513kts
23-Sep-17 18:31 45.682680 -95.329515 89 37051ft 512kts
23-Sep-17 18:32 45.697250 -95.129325 89 37047ft 512kts
23-Sep-17 18:33 45.711458 -94.928693 88 37044ft 510kts
23-Sep-17 18:34 45.725063 -94.730015 87 37037ft 506kts
23-Sep-17 18:35 45.738669 -94.530891 87 37077ft 504kts
23-Sep-17 18:36 45.751675 -94.332966 88 37082ft 505kts
23-Sep-17 18:37 45.764162 -94.137703 88 37041ft 504kts
23-Sep-17 18:38 45.776533 -93.938790 88 37025ft 504kts
23-Sep-17 18:39 45.788578 -93.739470 88 37023ft 503kts
23-Sep-17 18:40 45.800281 -93.539953 88 37026ft 504kts
23-Sep-17 18:41 45.811571 -93.341500 89 37051ft 504kts
23-Sep-17 18:42 45.822415 -93.145008 89 37029ft 503kts
23-Sep-17 18:43 45.833117 -92.944190 88 37027ft 507kts
23-Sep-17 18:44 45.843562 -92.742211 88 37031ft 508kts
23-Sep-17 18:45 45.853604 -92.540707 88 37042ft 508kts
23-Sep-17 18:46 45.863277 -92.339530 89 37042ft 508kts
23-Sep-17 18:47 45.874803 -92.138307 83 37035ft 510kts
23-Sep-17 18:48 45.895822 -91.937514 84 37061ft 510kts
23-Sep-17 18:49 45.916141 -91.736402 84 37057ft 510kts
23-Sep-17 18:50 45.936062 -91.535397 84 37052ft 510kts
23-Sep-17 18:51 45.955570 -91.334918 85 37051ft 509kts
23-Sep-17 18:52 45.974678 -91.134658 84 37050ft 509kts
23-Sep-17 18:53 45.993538 -90.933074 83 37063ft 506kts
23-Sep-17 18:54 46.011929 -90.733243 83 37082ft 507kts
23-Sep-17 18:55 46.030012 -90.532449 83 37087ft 507kts
23-Sep-17 18:56 46.047421 -90.335180 84 37087ft 507kts
23-Sep-17 18:57 46.064536 -90.137321 84 37089ft 506kts
23-Sep-17 18:58 46.081590 -89.935918 84 37103ft 506kts
23-Sep-17 18:59 46.098258 -89.734784 84 37104ft 506kts
23-Sep-17 19:00 46.114412 -89.535590 84 37105ft 506kts
23-Sep-17 19:01 46.130339 -89.334774 85 37115ft 506kts
23-Sep-17 19:02 46.145859 -89.134441 85 37116ft 506kts
23-Sep-17 19:03 46.161066 -88.933149 84 37118ft 506kts
23-Sep-17 19:04 46.175966 -88.731666 83 37113ft 504kts
23-Sep-17 19:05 46.190436 -88.531347 83 37086ft 505kts
23-Sep-17 19:06 46.204267 -88.334797 84 37084ft 504kts
23-Sep-17 19:07 46.218072 -88.133442 84 37081ft 504kts
23-Sep-17 19:08 46.231501 -87.932377 84 37086ft 504kts
23-Sep-17 19:09 46.244587 -87.731097 84 37093ft 504kts
23-Sep-17 19:10 46.257354 -87.529145 84 37094ft 504kts
23-Sep-17 19:11 46.269538 -87.330922 85 37092ft 504kts
23-Sep-17 19:12 46.281691 -87.127155 85 37090ft 504kts
23-Sep-17 19:13 46.293351 -86.925373 84 37091ft 502kts
23-Sep-17 19:14 46.304543 -86.725568 83 37103ft 500kts
23-Sep-17 19:15 46.315478 -86.524927 84 37104ft 500kts
23-Sep-17 19:16 46.325920 -86.326404 84 37101ft 500kts
23-Sep-17 19:17 46.336122 -86.125550 84 37100ft 501kts
23-Sep-17 19:18 46.344348 -85.958295 84 37105ft 501kts
23-Sep-17 19:19 46.353908 -85.757349 84 37110ft 501kts
23-Sep-17 19:20 46.363103 -85.556597 84 37112ft 501kts
23-Sep-17 19:21 46.373355 -85.323100 85 37109ft 501kts
23-Sep-17 19:22 46.381785 -85.122364 85 37110ft 500kts
23-Sep-17 19:23 46.388522 -84.955564 86 37110ft 498kts
23-Sep-17 19:24 46.396270 -84.755460 86 37112ft 498kts
23-Sep-17 19:25 46.403655 -84.555944 86 37112ft 498kts
23-Sep-17 19:26 46.410708 -84.355894 86 37113ft 498kts
23-Sep-17 19:27 46.428119 -84.157560 80 37111ft 498kts
23-Sep-17 19:28 46.448159 -83.959912 80 37110ft 497kts
23-Sep-17 19:29 46.467847 -83.761234 80 37127ft 497kts
23-Sep-17 19:30 46.487127 -83.563013 80 37130ft 498kts
23-Sep-17 19:31 46.506074 -83.364553 80 37131ft 498kts
23-Sep-17 19:32 46.524673 -83.165985 81 37127ft 498kts
23-Sep-17 19:33 46.542909 -82.967561 81 37130ft 497kts
23-Sep-17 19:34 46.560726 -82.769799 81 37127ft 491kts
23-Sep-17 19:35 46.578081 -82.573228 81 37131ft 492kts
23-Sep-17 19:36 46.595100 -82.376598 81 37130ft 491kts
23-Sep-17 19:37 46.611682 -82.181010 82 37127ft 492kts
23-Sep-17 19:38 46.628084 -81.983447 82 37127ft 492kts
23-Sep-17 19:39 46.644108 -81.786232 82 37124ft 492kts
23-Sep-17 19:40 46.659778 -81.589098 82 37121ft 492kts
23-Sep-17 19:41 46.675096 -81.392006 82 37121ft 492kts
23-Sep-17 19:42 46.689918 -81.196956 83 37118ft 492kts
23-Sep-17 19:43 46.704551 -80.999801 83 37119ft 489kts
23-Sep-17 19:44 46.718703 -80.804527 83 37117ft 483kts
23-Sep-17 19:45 46.732472 -80.609858 83 37120ft 484kts
23-Sep-17 19:46 46.745966 -80.414306 83 37120ft 484kts
23-Sep-17 19:47 46.759001 -80.220584 84 37118ft 484kts
23-Sep-17 19:48 46.771794 -80.025433 84 37126ft 484kts
23-Sep-17 19:49 46.784245 -79.830321 84 37137ft 484kts
23-Sep-17 19:50 46.796362 -79.635165 84 37137ft 484kts
23-Sep-17 19:51 46.808141 -79.440050 84 37138ft 484kts
23-Sep-17 19:52 46.819516 -79.246116 85 37136ft 484kts
23-Sep-17 19:53 46.830631 -79.050857 85 37136ft 483kts
23-Sep-17 19:54 46.841410 -78.855602 85 37137ft 482kts
23-Sep-17 19:55 46.851839 -78.660597 85 37138ft 483kts
23-Sep-17 19:56 46.861968 -78.464886 85 37138ft 483kts
23-Sep-17 19:57 46.871491 -78.274739 85 37076ft 483kts
23-Sep-17 19:58 46.880925 -78.079693 85 37075ft 483kts
23-Sep-17 19:59 46.890051 -77.884053 85 37090ft 484kts
23-Sep-17 20:00 46.898889 -77.687317 85 37088ft 486kts
23-Sep-17 20:01 46.907397 -77.490358 85 37087ft 487kts
23-Sep-17 20:02 46.915508 -77.294887 86 37088ft 488kts
23-Sep-17 20:03 46.923369 -77.097133 86 37091ft 489kts
23-Sep-17 20:04 46.930945 -76.897825 86 37091ft 492kts
23-Sep-17 20:05 46.938224 -76.697045 86 37093ft 496kts
23-Sep-17 20:06 46.945167 -76.495784 86 37094ft 497kts
23-Sep-17 20:07 46.951725 -76.295672 87 37089ft 498kts
23-Sep-17 20:08 46.957989 -76.093463 87 37091ft 499kts
23-Sep-17 20:09 46.963924 -75.890339 87 37092ft 500kts
23-Sep-17 20:10 46.969496 -75.687208 87 37093ft 501kts
23-Sep-17 20:11 46.974722 -75.483544 87 37094ft 502kts
23-Sep-17 20:12 46.979578 -75.280506 88 37088ft 503kts
23-Sep-17 20:13 46.984091 -75.076356 88 37091ft 504kts
23-Sep-17 20:14 46.988214 -74.871009 87 37096ft 506kts
23-Sep-17 20:15 46.992064 -74.665656 87 37101ft 507kts
23-Sep-17 20:16 46.995517 -74.459734 86 37103ft 507kts
23-Sep-17 20:17 46.998576 -74.255566 87 37096ft 508kts
23-Sep-17 20:18 47.001298 -74.048678 87 37099ft 508kts
23-Sep-17 20:19 47.003642 -73.842400 87 37095ft 509kts
23-Sep-17 20:20 47.005622 -73.635230 87 37074ft 509kts
23-Sep-17 20:21 47.007226 -73.428598 87 37076ft 509kts
23-Sep-17 20:22 47.008458 -73.223094 88 37070ft 509kts
23-Sep-17 20:23 47.009321 -73.015209 88 37072ft 513kts
23-Sep-17 20:24 47.009814 -72.806597 88 37072ft 513kts
23-Sep-17 20:25 47.009927 -72.597646 88 37075ft 513kts
23-Sep-17 20:26 47.009661 -72.389218 88 37076ft 513kts
23-Sep-17 20:27 47.009027 -72.182243 89 37071ft 513kts
23-Sep-17 20:28 47.008004 -71.973333 89 37081ft 513kts
23-Sep-17 20:29 47.006604 -71.764842 89 37082ft 513kts
23-Sep-17 20:30 47.004826 -71.556486 89 37084ft 513kts
23-Sep-17 20:31 47.002669 -71.347900 90 37085ft 512kts
23-Sep-17 20:32 47.000151 -71.140431 90 37080ft 512kts
23-Sep-17 20:33 46.997240 -70.932345 90 37080ft 513kts
23-Sep-17 20:34 46.993944 -70.723381 90 37085ft 516kts
23-Sep-17 20:35 46.990258 -70.513955 90 37084ft 515kts
23-Sep-17 20:36 46.986217 -70.305563 90 37078ft 514kts
23-Sep-17 20:37 46.981778 -70.096693 90 37080ft 514kts
23-Sep-17 20:38 46.976971 -69.888396 91 37082ft 513kts
23-Sep-17 20:39 46.971789 -69.680163 91 37083ft 513kts
23-Sep-17 20:40 46.966225 -69.471813 91 37085ft 512kts
23-Sep-17 20:41 46.960339 -69.265188 91 37078ft 511kts
23-Sep-17 20:42 46.954056 -69.058336 91 37079ft 511kts
23-Sep-17 20:43 46.947326 -68.849474 91 37083ft 516kts
23-Sep-17 20:44 46.940247 -68.640391 91 37082ft 514kts
23-Sep-17 20:45 46.932791 -68.432002 91 37081ft 514kts
23-Sep-17 20:46 46.925180 -68.229447 91 37071ft 513kts
23-Sep-17 20:47 46.916987 -68.021454 92 37071ft 512kts
23-Sep-17 20:48 46.908449 -67.814340 92 37073ft 511kts
23-Sep-17 20:49 46.899542 -67.607294 92 37074ft 510kts
23-Sep-17 20:50 46.890283 -67.400842 92 37076ft 509kts
23-Sep-17 20:51 46.880702 -67.195354 93 37070ft 508kts
23-Sep-17 20:52 46.875879 -66.989825 83 37074ft 506kts
23-Sep-17 20:53 46.884078 -66.785136 83 37066ft 506kts
23-Sep-17 20:54 46.891857 -66.579259 83 37067ft 508kts
23-Sep-17 20:55 46.899244 -66.373733 83 37080ft 508kts
23-Sep-17 20:56 46.906268 -66.168145 84 37097ft 510kts
23-Sep-17 20:57 46.912966 -65.961035 84 37097ft 511kts
23-Sep-17 20:58 46.919287 -65.753936 83 37099ft 512kts
23-Sep-17 20:59 46.925268 -65.545649 83 37101ft 513kts
23-Sep-17 21:00 46.930855 -65.337965 84 37100ft 513kts
23-Sep-17 21:01 46.936074 -65.130090 84 37096ft 515kts
23-Sep-17 21:02 46.940925 -64.920785 84 37097ft 516kts
23-Sep-17 21:03 46.945422 -64.711205 83 37100ft 518kts
23-Sep-17 21:04 46.949562 -64.500404 83 37101ft 519kts
23-Sep-17 21:05 46.953305 -64.290120 84 37092ft 520kts
23-Sep-17 21:06 46.956660 -64.079278 84 37096ft 520kts
23-Sep-17 21:07 46.959640 -63.867885 84 37097ft 521kts
23-Sep-17 21:08 46.962234 -63.655868 84 37100ft 522kts
23-Sep-17 21:09 46.964434 -63.444243 84 37102ft 522kts
23-Sep-17 21:10 46.966257 -63.232216 85 37094ft 523kts
23-Sep-17 21:11 46.967658 -63.019977 84 37094ft 524kts
23-Sep-17 21:12 46.968702 -62.805907 84 37098ft 527kts
23-Sep-17 21:13 46.969355 -62.591537 84 37098ft 527kts
23-Sep-17 21:14 46.969588 -62.377876 84 37101ft 526kts
23-Sep-17 21:15 46.969446 -62.166580 84 37103ft 524kts
23-Sep-17 21:16 46.968894 -61.953108 84 37103ft 523kts
23-Sep-17 21:17 46.967952 -61.740458 84 37090ft 524kts
23-Sep-17 21:18 46.966617 -61.527886 84 37081ft 523kts
23-Sep-17 21:19 46.964905 -61.316614 85 37074ft 523kts
23-Sep-17 21:20 46.962778 -61.104219 85 37072ft 524kts
23-Sep-17 21:21 46.960257 -60.891100 85 37069ft 526kts
23-Sep-17 21:22 46.957333 -60.677100 85 37070ft 525kts
23-Sep-17 21:23 46.954025 -60.464088 85 37073ft 525kts
23-Sep-17 21:24 46.950359 -60.253059 86 37064ft 525kts
23-Sep-17 21:25 46.946259 -60.040137 86 37067ft 524kts
23-Sep-17 21:26 46.941773 -59.827575 86 37069ft 523kts
23-Sep-17 21:27 46.936901 -59.615194 86 37071ft 523kts
23-Sep-17 21:28 46.931640 -59.403131 86 37073ft 522kts
23-Sep-17 21:29 46.926007 -59.191652 87 37066ft 521kts
23-Sep-17 21:30 46.920002 -58.980798 87 37065ft 521kts
23-Sep-17 21:31 46.913543 -58.767688 87 37069ft 526kts
23-Sep-17 21:32 46.906663 -58.554630 87 37069ft 524kts
23-Sep-17 21:33 46.899570 -58.346303 88 37060ft 524kts
23-Sep-17 21:34 46.891972 -58.134469 88 37048ft 523kts
23-Sep-17 21:35 46.883952 -57.922147 88 37050ft 522kts
23-Sep-17 21:36 46.875583 -57.710909 88 37053ft 521kts
23-Sep-17 21:37 46.866840 -57.500004 88 37055ft 521kts
23-Sep-17 21:38 46.857773 -57.290298 89 37045ft 522kts
23-Sep-17 21:39 46.849819 -57.113812 89 37050ft 522kts
23-Sep-17 21:40 46.838224 -56.865855 89 37054ft 530kts
23-Sep-17 21:41 46.827756 -56.652314 89 37037ft 529kts
23-Sep-17 21:42 46.818706 -56.473431 89 37039ft 529kts
23-Sep-17 21:43 46.805658 -56.224894 90 37003ft 529kts
23-Sep-17 21:44 46.795993 -56.047198 90 36987ft 529kts
23-Sep-17 21:45 46.784022 -55.833744 90 36989ft 530kts
23-Sep-17 21:46 46.771594 -55.619596 90 36991ft 529kts
23-Sep-17 21:47 46.758825 -55.406383 90 36994ft 529kts
23-Sep-17 21:48 46.745717 -55.194006 91 36986ft 530kts
23-Sep-17 21:49 46.732107 -54.979975 91 36989ft 536kts
23-Sep-17 21:50 46.717902 -54.763714 91 36939ft 536kts
23-Sep-17 21:51 46.703340 -54.547864 91 36921ft 536kts
23-Sep-17 21:52 46.688483 -54.333637 92 36919ft 537kts
23-Sep-17 21:53 46.673120 -54.118255 92 36914ft 537kts
23-Sep-17 21:54 46.657335 -53.902607 92 36916ft 537kts
23-Sep-17 21:55 46.641081 -53.686356 92 36920ft 537kts
23-Sep-17 21:56 46.624518 -53.471438 92 36922ft 537kts
23-Sep-17 21:57 46.607505 -53.255954 93 36912ft 537kts
23-Sep-17 21:58 46.590095 -53.040851 93 36916ft 537kts
23-Sep-17 21:59 46.572190 -52.824705 93 36920ft 544kts
23-Sep-17 22:00 46.553644 -52.606081 93 36920ft 544kts
23-Sep-17 22:01 46.534787 -52.388687 93 36925ft 545kts
23-Sep-17 22:02 46.515479 -52.171082 94 36915ft 545kts
23-Sep-17 22:03 46.511760 -51.954969 71 36920ft 530kts
23-Sep-17 22:04 46.575507 -51.771884 49 36928ft 507kts
23-Sep-17 22:05 46.643701 -51.590650 54 36921ft 512kts
23-Sep-17 22:06 46.708171 -51.406417 54 36923ft 513kts
23-Sep-17 22:07 46.772348 -51.220766 55 36913ft 514kts
23-Sep-17 22:08 46.836152 -51.034833 55 36911ft 515kts
23-Sep-17 22:09 46.900080 -50.847135 54 36914ft 520kts
23-Sep-17 22:10 46.964762 -50.655919 54 36921ft 532kts
23-Sep-17 22:11 47.030553 -50.459977 53 36923ft 542kts
23-Sep-17 22:12 47.096913 -50.260850 53 36906ft 545kts
23-Sep-17 22:13 47.162934 -50.061145 53 36918ft 544kts
23-Sep-17 22:14 47.228656 -49.860854 53 36919ft 544kts
23-Sep-17 22:15 47.294003 -49.660111 53 36958ft 547kts
23-Sep-17 22:16 47.359175 -49.458338 53 36962ft 547kts
23-Sep-17 22:17 47.423835 -49.256557 54 36942ft 547kts
23-Sep-17 22:18 47.488579 -49.052881 54 36942ft 554kts
23-Sep-17 22:19 47.554132 -48.844962 54 36949ft 560kts
23-Sep-17 22:20 47.619319 -48.636488 54 36949ft 558kts
23-Sep-17 22:21 47.684137 -48.427523 54 36957ft 560kts
23-Sep-17 22:22 47.747674 -48.220923 54 36943ft 560kts
23-Sep-17 22:23 47.811700 -48.011011 55 36938ft 560kts
23-Sep-17 22:24 47.875644 -47.799504 54 36946ft 559kts
23-Sep-17 22:25 47.938962 -47.588342 55 36947ft 559kts
23-Sep-17 22:26 48.001909 -47.376604 55 36953ft 559kts
23-Sep-17 22:27 48.064578 -47.164022 56 36938ft 561kts
23-Sep-17 22:28 48.126937 -46.950610 56 36943ft 561kts
23-Sep-17 22:29 48.189199 -46.735592 57 36958ft 565kts
23-Sep-17 22:30 48.251215 -46.519475 56 36958ft 565kts
23-Sep-17 22:31 48.312712 -46.303304 57 36936ft 566kts
23-Sep-17 22:32 48.373979 -46.085972 58 36947ft 568kts
23-Sep-17 22:33 48.435035 -45.867390 57 36945ft 566kts
23-Sep-17 22:34 48.495479 -45.648958 57 36953ft 565kts
23-Sep-17 22:35 48.555423 -45.430445 57 36953ft 567kts
23-Sep-17 22:36 48.615324 -45.209909 58 36937ft 567kts
23-Sep-17 22:37 48.674654 -44.989675 60 36939ft 566kts
23-Sep-17 22:38 48.733437 -44.769069 61 36948ft 565kts
23-Sep-17 22:39 48.791695 -44.548389 61 36950ft 565kts
23-Sep-17 22:40 48.849523 -44.327303 61 36946ft 566kts
23-Sep-17 22:41 48.907177 -44.104711 61 36942ft 567kts
23-Sep-17 22:42 48.964173 -43.882503 62 36945ft 566kts
23-Sep-17 22:43 49.020526 -43.660864 63 36948ft 559kts
23-Sep-17 22:44 49.075819 -43.441034 64 36953ft 551kts
23-Sep-17 22:45 49.129672 -43.224823 66 36940ft 543kts
23-Sep-17 22:46 49.183230 -43.007905 68 36947ft 551kts
23-Sep-17 22:47 49.236536 -42.789444 68 36944ft 550kts
23-Sep-17 22:48 49.289670 -42.569754 68 36949ft 551kts
23-Sep-17 22:49 49.342372 -42.349642 69 36952ft 551kts
23-Sep-17 22:50 49.394590 -42.129384 69 36942ft 551kts
23-Sep-17 22:51 49.446305 -41.909014 69 36945ft 551kts
23-Sep-17 22:52 49.497643 -41.687964 69 36949ft 551kts
23-Sep-17 22:53 49.548636 -41.466172 69 36952ft 550kts
23-Sep-17 22:54 49.599296 -41.243506 70 36941ft 550kts
23-Sep-17 22:55 49.649230 -41.021669 70 36945ft 551kts
23-Sep-17 22:56 49.698877 -40.798801 70 36946ft 548kts
23-Sep-17 22:57 49.747812 -40.576705 70 36953ft 548kts
23-Sep-17 22:58 49.796562 -40.353060 70 36633ft 548kts
23-Sep-17 22:59 49.844643 -40.130150 71 36540ft 548kts
23-Sep-17 23:00 49.892426 -39.906142 71 36538ft 548kts
23-Sep-17 23:01 49.939667 -39.682189 71 36543ft 548kts
23-Sep-17 23:02 49.986568 -39.457380 71 36545ft 548kts
23-Sep-17 23:03 50.032957 -39.232532 72 36534ft 548kts
23-Sep-17 23:04 50.079008 -39.006583 71 36537ft 545kts
23-Sep-17 23:05 50.123847 -38.784308 71 36531ft 537kts
23-Sep-17 23:06 50.168318 -38.561324 71 36538ft 539kts
23-Sep-17 23:07 50.211589 -38.341784 72 36538ft 539kts
23-Sep-17 23:08 50.255132 -38.118309 72 36531ft 539kts
23-Sep-17 23:09 50.298164 -37.894877 72 36535ft 539kts
23-Sep-17 23:10 50.340990 -37.669810 72 36536ft 539kts
23-Sep-17 23:11 50.383159 -37.445506 72 36539ft 539kts
23-Sep-17 23:12 50.425001 -37.220345 73 36528ft 539kts
23-Sep-17 23:13 50.466305 -36.994900 71 36532ft 535kts
23-Sep-17 23:14 50.506844 -36.771605 71 36537ft 534kts
23-Sep-17 23:15 50.546959 -36.547970 75 36514ft 534kts
23-Sep-17 23:16 50.586686 -36.323004 76 36508ft 534kts
23-Sep-17 23:17 50.625871 -36.098546 76 36506ft 534kts
23-Sep-17 23:18 50.664759 -35.873042 76 36509ft 534kts
23-Sep-17 23:19 50.703169 -35.647328 76 36543ft 534kts
23-Sep-17 23:20 50.741023 -35.421991 76 36671ft 532kts
23-Sep-17 23:21 50.778605 -35.195311 77 36991ft 536kts
23-Sep-17 23:22 50.815719 -34.968364 77 37162ft 534kts
23-Sep-17 23:23 50.852417 -34.740884 76 37158ft 534kts
23-Sep-17 23:24 50.888578 -34.513914 75 37163ft 534kts
23-Sep-17 23:25 50.924401 -34.285853 77 37159ft 535kts
23-Sep-17 23:26 50.959883 -34.056723 77 37155ft 534kts
23-Sep-17 23:27 50.994734 -33.828289 78 37158ft 535kts
23-Sep-17 23:28 51.029237 -33.598998 78 37162ft 535kts
23-Sep-17 23:29 51.063236 -33.369622 78 37169ft 534kts
23-Sep-17 23:30 51.096812 -33.139815 79 37158ft 534kts
23-Sep-17 23:31 51.129416 -32.912817 77 37155ft 537kts
23-Sep-17 23:32 51.162132 -32.682555 77 37156ft 535kts
23-Sep-17 23:33 51.194537 -32.450509 77 37158ft 536kts
23-Sep-17 23:34 51.226276 -32.219670 78 37153ft 535kts
23-Sep-17 23:35 51.257707 -31.987271 78 37156ft 536kts
23-Sep-17 23:36 51.288605 -31.755181 78 37157ft 536kts
23-Sep-17 23:37 51.319051 -31.522796 78 37157ft 536kts
23-Sep-17 23:38 51.349070 -31.289863 79 37152ft 536kts
23-Sep-17 23:39 51.378535 -31.056648 77 37154ft 536kts
23-Sep-17 23:40 51.407544 -30.824113 76 37157ft 533kts
23-Sep-17 23:41 51.436063 -30.591157 76 37159ft 533kts
23-Sep-17 23:42 51.464186 -30.357468 76 37165ft 534kts
23-Sep-17 23:43 51.491772 -30.123912 77 37156ft 534kts
23-Sep-17 23:44 51.518854 -29.890476 77 37156ft 534kts
23-Sep-17 23:45 51.545520 -29.656355 77 37158ft 534kts
23-Sep-17 23:46 51.571745 -29.421693 77 37157ft 534kts
23-Sep-17 23:47 51.597380 -29.187877 77 37153ft 534kts
23-Sep-17 23:48 51.622693 -28.952043 77 37156ft 533kts
23-Sep-17 23:49 51.647245 -28.719166 75 37152ft 527kts
23-Sep-17 23:50 51.671394 -28.485876 75 37158ft 529kts
23-Sep-17 23:51 51.694671 -28.255996 76 37152ft 529kts
23-Sep-17 23:52 51.717861 -28.022169 75 37153ft 529kts
23-Sep-17 23:53 51.740578 -27.788221 76 37153ft 528kts
23-Sep-17 23:54 51.762839 -27.553913 76 37133ft 530kts
23-Sep-17 23:55 51.784646 -27.319222 77 36467ft 528kts
23-Sep-17 23:56 51.805980 -27.084532 77 36328ft 529kts
23-Sep-17 23:57 51.826406 -26.853530 74 36180ft 510kts
23-Sep-17 23:58 51.846191 -26.626538 75 36075ft 513kts
23-Sep-17 23:59 51.865464 -26.399274 75 36074ft 513kts
24-Sep-17 00:00 51.884383 -26.170626 75 36069ft 513kts
24-Sep-17 00:01 51.902847 -25.942012 75 36070ft 513kts
24-Sep-17 00:02 51.920870 -25.713163 75 36072ft 513kts
24-Sep-17 00:03 51.935536 -25.522457 75 36073ft 512kts
24-Sep-17 00:04 51.952701 -25.294112 76 36061ft 514kts
24-Sep-17 00:05 51.969436 -25.065451 77 36068ft 507kts
24-Sep-17 00:06 51.987996 -24.803779 78 36073ft 500kts
24-Sep-17 00:07 52.000885 -24.616810 78 36073ft 500kts
24-Sep-17 00:08 52.015916 -24.393202 78 36075ft 500kts
24-Sep-17 00:09 52.030570 -24.169092 78 36069ft 500kts
24-Sep-17 00:10 52.044810 -23.944207 78 36071ft 500kts
24-Sep-17 00:11 52.058617 -23.719529 78 36069ft 501kts
24-Sep-17 00:12 52.071957 -23.495233 78 36077ft 501kts
24-Sep-17 00:13 52.084898 -23.270506 79 36065ft 501kts
24-Sep-17 00:14 52.097430 -23.045080 79 36069ft 501kts
24-Sep-17 00:15 52.109493 -22.821788 82 36079ft 498kts
24-Sep-17 00:16 52.120974 -22.598796 82 36077ft 495kts
24-Sep-17 00:17 52.132096 -22.375567 82 36077ft 496kts
24-Sep-17 00:18 52.142809 -22.152083 83 36073ft 496kts
24-Sep-17 00:19 52.153082 -21.928929 83 36075ft 496kts
24-Sep-17 00:20 52.162947 -21.705404 83 36078ft 496kts
24-Sep-17 00:21 52.172360 -21.482378 83 36079ft 496kts
24-Sep-17 00:22 52.181389 -21.258512 84 36072ft 496kts
24-Sep-17 00:23 52.190042 -21.034330 84 36075ft 497kts
24-Sep-17 00:24 52.198249 -20.809393 86 36208ft 493kts
24-Sep-17 00:25 52.205913 -20.586653 86 37010ft 499kts
24-Sep-17 00:26 52.213293 -20.360799 86 36989ft 496kts
24-Sep-17 00:27 52.220207 -20.136010 87 36993ft 497kts
24-Sep-17 00:28 52.226675 -19.911918 87 36993ft 497kts
24-Sep-17 00:29 52.232742 -19.686889 87 36994ft 497kts
24-Sep-17 00:30 52.238364 -19.462432 87 36995ft 497kts
24-Sep-17 00:31 52.243572 -19.237441 88 36991ft 497kts
24-Sep-17 00:32 52.248392 -19.011875 89 36993ft 500kts
24-Sep-17 00:33 52.252736 -18.785818 89 36992ft 500kts
24-Sep-17 00:34 52.256679 -18.558984 89 36994ft 500kts
24-Sep-17 00:35 52.260119 -18.337162 90 36994ft 500kts
24-Sep-17 00:36 52.263202 -18.110654 90 36992ft 500kts
24-Sep-17 00:37 52.265857 -17.883714 90 36992ft 500kts
24-Sep-17 00:38 52.268070 -17.657541 90 36994ft 500kts
24-Sep-17 00:39 52.269850 -17.431404 90 36995ft 500kts
24-Sep-17 00:40 52.271199 -17.204907 91 36991ft 499kts
24-Sep-17 00:41 52.272125 -16.978704 91 36991ft 500kts
24-Sep-17 00:42 52.272631 -16.750847 92 36994ft 503kts
24-Sep-17 00:43 52.272649 -16.522918 92 36994ft 503kts
24-Sep-17 00:44 52.272258 -16.295183 93 36990ft 503kts
24-Sep-17 00:45 52.271421 -16.066914 93 36992ft 503kts
24-Sep-17 00:46 52.270152 -15.839265 93 36992ft 503kts
24-Sep-17 00:47 52.268445 -15.611434 93 36993ft 503kts
24-Sep-17 00:48 52.266301 -15.383848 93 36995ft 503kts
24-Sep-17 00:49 52.263727 -15.156730 94 36991ft 502kts
24-Sep-17 00:50 52.260757 -14.928692 95 36991ft 504kts
24-Sep-17 00:51 52.257257 -14.701593 96 36993ft 503kts
24-Sep-17 00:52 52.253351 -14.473660 96 36996ft 503kts
24-Sep-17 00:53 52.249009 -14.246036 97 36986ft 502kts
24-Sep-17 00:54 52.244239 -14.018190 96 36989ft 502kts
24-Sep-17 00:55 52.239043 -13.791313 96 36991ft 502kts
24-Sep-17 00:56 52.233382 -13.563335 96 36994ft 503kts
24-Sep-17 00:57 52.227301 -13.335971 97 36992ft 502kts
24-Sep-17 00:58 52.220823 -13.108852 98 36986ft 503kts
24-Sep-17 00:59 52.213863 -12.881336 100 36984ft 504kts
24-Sep-17 01:00 52.206406 -12.653615 100 36989ft 505kts
24-Sep-17 01:01 52.198565 -12.425926 100 36992ft 503kts
24-Sep-17 01:02 52.190858 -12.214092 101 36986ft 502kts
24-Sep-17 01:03 52.182179 -11.987233 101 36989ft 504kts
24-Sep-17 01:04 52.173065 -11.760078 101 36992ft 503kts
24-Sep-17 01:05 52.163481 -11.532445 101 36993ft 504kts
24-Sep-17 01:06 52.153802 -11.312400 102 36992ft 503kts
24-Sep-17 01:07 52.143397 -11.086257 101 36985ft 503kts
24-Sep-17 01:08 52.132605 -10.860008 103 36990ft 505kts
24-Sep-17 01:09 52.121201 -10.631321 103 36987ft 507kts
24-Sep-17 01:10 52.109452 -10.404368 103 36992ft 507kts
24-Sep-17 01:11 52.097431 -10.180408 104 36983ft 504kts
24-Sep-17 01:12 52.084804 -9.953386 104 36985ft 505kts
24-Sep-17 01:13 52.071742 -9.726514 104 36989ft 506kts
24-Sep-17 01:14 52.058208 -9.499174 104 36988ft 505kts
24-Sep-17 01:15 52.044633 -9.277409 105 36982ft 496kts
24-Sep-17 01:16 52.030458 -9.055070 105 36996ft 499kts
24-Sep-17 01:17 52.015858 -8.831591 104 37018ft 504kts
24-Sep-17 01:18 52.000723 -8.606204 104 37014ft 502kts
24-Sep-17 01:19 51.985195 -8.381897 104 37020ft 504kts
24-Sep-17 01:20 51.969713 -8.164279 105 37005ft 503kts
24-Sep-17 01:21 51.953371 -7.940628 105 37010ft 503kts
24-Sep-17 01:22 51.936476 -7.715237 105 37015ft 502kts
24-Sep-17 01:23 51.919197 -7.490881 105 37012ft 503kts
24-Sep-17 01:24 51.901623 -7.268097 106 37006ft 503kts
24-Sep-17 01:25 51.883542 -7.045561 104 37029ft 508kts
24-Sep-17 01:26 51.864814 -6.818705 103 37024ft 508kts
24-Sep-17 01:27 51.845655 -6.592817 103 37027ft 509kts
24-Sep-17 01:28 51.826042 -6.366913 103 37029ft 509kts
24-Sep-17 01:29 51.806215 -6.143643 104 37021ft 508kts
24-Sep-17 01:30 51.785787 -5.918634 104 37024ft 508kts
24-Sep-17 01:31 51.764894 -5.693445 104 37030ft 508kts
24-Sep-17 01:32 51.743528 -5.468072 104 37053ft 509kts
24-Sep-17 01:33 51.725122 -5.243670 101 37049ft 510kts
24-Sep-17 01:34 51.712501 -5.016130 100 37052ft 512kts
24-Sep-17 01:35 51.700218 -4.787241 97 37051ft 515kts
24-Sep-17 01:36 51.687665 -4.557805 98 37074ft 514kts
24-Sep-17 01:37 51.674714 -4.330359 98 37077ft 514kts
24-Sep-17 01:38 51.663183 -4.134289 98 37073ft 514kts
24-Sep-17 01:39 51.649813 -3.913496 98 37051ft 490kts
24-Sep-17 01:40 51.636283 -3.695114 98 35906ft 503kts
24-Sep-17 01:41 51.622328 -3.473707 98 33619ft 505kts
24-Sep-17 01:42 51.608074 -3.270149 104 31526ft 501kts
24-Sep-17 01:43 51.580391 -3.059073 105 29433ft 493kts
24-Sep-17 01:44 51.552001 -2.846968 104 27276ft 487kts
24-Sep-17 01:45 51.524627 -2.644865 104 25189ft 465kts
24-Sep-17 01:46 51.497369 -2.446738 105 23254ft 455kts
24-Sep-17 01:47 51.472782 -2.269841 106 21336ft 411kts
24-Sep-17 01:48 51.447548 -2.091376 106 19646ft 418kts
24-Sep-17 01:49 51.422134 -1.912816 106 17889ft 407kts
24-Sep-17 01:50 51.397718 -1.743095 106 15991ft 382kts
24-Sep-17 01:51 51.373877 -1.579412 106 14394ft 378kts
24-Sep-17 01:52 51.350617 -1.421780 106 13470ft 362kts
24-Sep-17 01:53 51.329057 -1.277260 107 12960ft 358kts
24-Sep-17 01:54 51.313473 -1.125427 92 12400ft 359kts
24-Sep-17 01:55 51.313893 -0.978122 91 11346ft 323kts
24-Sep-17 01:56 51.314288 -0.852836 91 9926ft 266kts
24-Sep-17 01:57 51.314492 -0.740287 91 9368ft 255kts
24-Sep-17 01:58 51.314604 -0.629155 91 8658ft 250kts
24-Sep-17 01:59 51.314619 -0.523745 91 8084ft 231kts
24-Sep-17 02:00 51.314526 -0.419444 90 6750ft 240kts
24-Sep-17 02:01 51.353478 -0.359686 24 4761ft 204kts
24-Sep-17 02:02 51.396004 -0.330749 25 3288ft 188kts
24-Sep-17 02:03 51.436837 -0.317153 337 3112ft 191kts
24-Sep-17 02:04 51.468514 -0.369299 285 1819ft 200kts
24-Sep-17 02:05 51.465224 -0.424279 220 1280ft 159kts
24-Sep-17 02:06 51.440631 -0.399366 93 2114ft 158kts
24-Sep-17 02:07 51.439844 -0.339034 91 2084ft 153kts
24-Sep-17 02:08 51.439554 -0.281036 88 2120ft 153kts
24-Sep-17 02:09 51.467018 -0.268528 309 1927ft 161kts
24-Sep-17 02:10 51.477828 -0.325969 269 1455ft 157kts
24-Sep-17 02:11 51.477879 -0.381070 269 750ft 144kts
24-Sep-17 02:12 51.477660 -0.428357 270 195ft 145kts
24-Sep-17 02:13 51.477400 -0.465665 250 85ft 31kts
24-Sep-17 02:14 51.475597 -0.469442 209 85ft 9kts
24-Sep-17 02:15 51.474951 -0.467551 89 82ft 13kts
24-Sep-17 02:16 51.475073 -0.465221 112 83ft 1kts
24-Sep-17 02:17 51.474294 -0.465104 180 82ft 0kts
24-Sep-17 02:18 51.474294 -0.465104 180 82ft 0kts

Navigation Log

Ident Type
Flight plan parsing failed, navigation log unavailable